Time,TemperatureF,DewpointF,PressureIn,WindDirection,WindDirectionDegrees,WindSpeedMPH,WindSpeedGustMPH,Humidity,HourlyPrecipIn,Conditions,Clouds,dailyrainin,SoftwareType,DateUTC
2013-08-11 00:01:00,59.0,53.0,30.12,SSW,194,0.0,0.0,80,0.00,,,0.00,,2013-08-11 04:01:00,
2013-08-11 00:12:00,58.0,52.0,30.12,SSW,195,0.0,0.0,80,0.00,,,0.00,,2013-08-11 04:12:00,
2013-08-11 00:22:00,58.0,53.0,30.12,SSW,195,0.0,0.0,82,0.00,,,0.00,,2013-08-11 04:22:00,
2013-08-11 00:32:00,57.0,52.0,30.12,SSW,195,0.0,0.0,84,0.00,,,0.00,,2013-08-11 04:32:00,
2013-08-11 00:43:00,57.0,53.0,30.12,SSW,195,0.0,0.0,88,0.00,,,0.00,,2013-08-11 04:43:00,
2013-08-11 00:53:00,57.0,54.0,30.12,SSW,195,0.0,0.0,89,0.00,,,0.00,,2013-08-11 04:53:00,
2013-08-11 01:02:00,57.0,53.0,30.13,SSW,194,0.0,0.0,88,0.00,,,0.00,,2013-08-11 05:02:00,
2013-08-11 01:20:00,57.0,54.0,30.13,SSW,194,0.0,0.0,90,0.00,,,0.00,,2013-08-11 05:20:00,
2013-08-11 01:25:00,57.0,54.0,30.13,SSE,156,0.0,0.0,91,0.00,,,0.00,,2013-08-11 05:25:00,
2013-08-11 01:47:00,57.0,54.0,30.13,SE,137,0.0,0.0,91,0.00,,,0.00,,2013-08-11 05:47:00,
2013-08-11 01:54:00,57.0,54.0,30.12,SE,137,0.0,0.0,91,0.00,,,0.00,,2013-08-11 05:54:00,
2013-08-11 02:17:00,56.0,54.0,30.12,SE,136,0.0,0.0,93,0.00,,,0.00,,2013-08-11 06:17:00,
2013-08-11 02:37:00,55.0,53.0,30.13,WSW,248,0.0,0.0,93,0.00,,,0.00,,2013-08-11 06:37:00,
2013-08-11 02:48:00,56.0,54.0,30.13,WSW,248,0.0,0.0,93,0.00,,,0.00,,2013-08-11 06:48:00,
2013-08-11 02:55:00,56.0,54.0,30.12,WSW,248,0.0,0.0,93,0.00,,,0.00,,2013-08-11 06:55:00,
2013-08-11 03:06:00,56.0,54.0,30.13,WSW,248,0.0,0.0,93,0.00,,,0.00,,2013-08-11 07:06:00,
2013-08-11 03:16:00,56.0,54.0,30.13,WSW,248,0.0,0.0,94,0.00,,,0.00,,2013-08-11 07:16:00,
2013-08-11 03:36:00,56.0,54.0,30.13,WSW,248,0.0,0.0,94,0.00,,,0.00,,2013-08-11 07:36:00,
2013-08-11 03:54:00,56.0,54.0,30.13,WSW,248,0.0,0.0,94,0.00,,,0.00,,2013-08-11 07:54:00,
2013-08-11 04:10:00,56.0,54.0,30.12,ESE,104,0.0,0.0,94,0.00,,,0.00,,2013-08-11 08:10:00,
2013-08-11 04:19:00,55.0,53.0,30.13,ESE,104,0.0,0.0,94,0.00,,,0.00,,2013-08-11 08:19:00,
2013-08-11 04:27:00,55.0,53.0,30.12,ESE,105,0.0,0.0,94,0.00,,,0.00,,2013-08-11 08:27:00,
2013-08-11 04:36:00,55.0,53.0,30.12,ESE,104,0.0,0.0,94,0.00,,,0.00,,2013-08-11 08:36:00,
2013-08-11 04:48:00,55.0,53.0,30.13,East,84,0.0,0.0,94,0.00,,,0.00,,2013-08-11 08:48:00,
2013-08-11 04:57:00,55.0,53.0,30.13,East,84,0.0,0.0,94,0.00,,,0.00,,2013-08-11 08:57:00,
2013-08-11 05:09:00,56.0,54.0,30.13,East,84,0.0,0.0,94,0.00,,,0.00,,2013-08-11 09:09:00,
2013-08-11 05:17:00,56.0,54.0,30.13,East,83,0.0,0.0,94,0.00,,,0.00,,2013-08-11 09:17:00,
2013-08-11 05:35:00,56.0,54.0,30.14,East,84,0.0,0.0,94,0.00,,,0.00,,2013-08-11 09:35:00,
2013-08-11 05:44:00,56.0,54.0,30.14,East,84,0.0,0.0,94,0.00,,,0.00,,2013-08-11 09:44:00,
2013-08-11 06:06:00,56.0,55.0,30.14,ESE,108,0.0,0.0,95,0.00,,,0.00,,2013-08-11 10:06:00,
2013-08-11 06:15:00,56.0,54.0,30.14,ESE,109,0.0,0.0,94,0.00,,,0.00,,2013-08-11 10:15:00,
2013-08-11 06:29:00,56.0,54.0,30.13,ESE,109,0.0,0.0,94,0.00,,,0.00,,2013-08-11 10:29:00,
2013-08-11 06:36:00,56.0,54.0,30.14,ESE,108,0.0,0.0,94,0.00,,,0.00,,2013-08-11 10:36:00,
2013-08-11 06:46:00,56.0,54.0,30.14,ESE,109,0.0,0.0,94,0.00,,,0.00,,2013-08-11 10:46:00,
2013-08-11 06:55:00,56.0,54.0,30.14,ESE,109,0.0,0.0,94,0.00,,,0.00,,2013-08-11 10:55:00,
2013-08-11 07:06:00,56.0,54.0,30.15,ESE,109,0.0,0.0,94,0.00,,,0.00,,2013-08-11 11:06:00,
2013-08-11 07:16:00,57.0,55.0,30.15,ESE,109,0.0,0.0,94,0.00,,,0.00,,2013-08-11 11:16:00,
2013-08-11 07:24:00,57.0,55.0,30.15,ESE,108,0.0,0.0,94,0.00,,,0.00,,2013-08-11 11:24:00,
2013-08-11 07:37:00,57.0,55.0,30.15,ESE,109,0.0,0.0,94,0.00,,,0.00,,2013-08-11 11:37:00,
2013-08-11 07:47:00,57.0,55.0,30.15,ESE,109,0.0,0.0,94,0.00,,,0.00,,2013-08-11 11:47:00,
2013-08-11 07:56:00,58.0,56.0,30.15,ESE,109,0.0,0.0,94,0.00,,,0.00,,2013-08-11 11:56:00,
2013-08-11 08:06:00,58.0,56.0,30.15,WNW,284,0.0,0.0,93,0.00,,,0.00,,2013-08-11 12:06:00,
2013-08-11 08:16:00,58.0,56.0,30.15,WNW,284,0.0,1.0,93,0.00,,,0.00,,2013-08-11 12:16:00,
2013-08-11 08:30:00,58.0,56.0,30.16,NNE,17,0.0,0.0,93,0.00,,,0.00,,2013-08-11 12:30:00,
2013-08-11 08:36:00,58.0,56.0,30.16,NNE,17,0.0,0.0,93,0.00,,,0.00,,2013-08-11 12:36:00,
2013-08-11 08:46:00,59.0,57.0,30.16,NNE,15,0.0,0.0,92,0.00,,,0.00,,2013-08-11 12:46:00,
2013-08-11 08:54:00,59.0,57.0,30.16,NNE,16,0.0,0.0,93,0.00,,,0.00,,2013-08-11 12:54:00,
2013-08-11 09:06:00,61.0,58.0,30.16,NNE,30,0.0,1.0,91,0.00,,,0.00,,2013-08-11 13:06:00,
2013-08-11 09:16:00,61.0,58.0,30.16,NE,44,2.0,3.0,89,0.00,,,0.00,,2013-08-11 13:16:00,
2013-08-11 09:26:00,61.0,57.0,30.16,North,11,0.0,2.0,88,0.00,,,0.00,,2013-08-11 13:26:00,
2013-08-11 09:39:00,62.0,58.0,30.16,North,11,0.0,2.0,87,0.00,,,0.00,,2013-08-11 13:39:00,
2013-08-11 09:45:00,62.0,57.0,30.17,NNW,345,0.0,0.0,84,0.00,,,0.00,,2013-08-11 13:45:00,
2013-08-11 10:18:00,64.0,58.0,30.16,West,261,0.0,0.0,82,0.00,,,0.00,,2013-08-11 14:18:00,
2013-08-11 10:24:00,66.0,59.0,30.15,North,11,0.0,0.0,78,0.00,,,0.00,,2013-08-11 14:24:00,
2013-08-11 10:35:00,66.0,58.0,30.16,WSW,257,2.0,5.0,75,0.00,,,0.00,,2013-08-11 14:35:00,
2013-08-11 10:48:00,66.0,58.0,30.16,West,264,1.0,5.0,75,0.00,,,0.00,,2013-08-11 14:48:00,
2013-08-11 10:56:00,66.0,57.0,30.16,West,262,1.0,3.0,74,0.00,,,0.00,,2013-08-11 14:56:00,
2013-08-11 11:08:00,66.0,57.0,30.16,West,269,2.0,5.0,72,0.00,,,0.00,,2013-08-11 15:08:00,
2013-08-11 11:15:00,68.0,59.0,30.16,West,270,1.0,3.0,73,0.00,,,0.00,,2013-08-11 15:15:00,
2013-08-11 11:24:00,69.0,58.0,30.16,West,266,3.0,6.0,69,0.00,,,0.00,,2013-08-11 15:24:00,
2013-08-11 11:49:00,70.0,59.0,30.15,WSW,249,3.0,8.0,67,0.00,,,0.00,,2013-08-11 15:49:00,
2013-08-11 11:58:00,70.0,56.0,30.14,West,266,7.0,10.0,62,0.00,,,0.00,,2013-08-11 15:58:00,
2013-08-11 12:15:00,71.0,57.0,30.14,West,263,4.0,12.0,61,0.00,,,0.00,,2013-08-11 16:15:00,
2013-08-11 12:29:00,71.0,57.0,30.14,West,271,3.0,6.0,62,0.00,,,0.00,,2013-08-11 16:29:00,
2013-08-11 12:46:00,72.0,60.0,30.13,SSE,162,1.0,7.0,65,0.00,,,0.00,,2013-08-11 16:46:00,
2013-08-11 12:55:00,72.0,57.0,30.13,SE,128,2.0,8.0,60,0.00,,,0.00,,2013-08-11 16:55:00,
2013-08-11 13:08:00,73.0,60.0,30.13,SSW,197,1.0,5.0,63,0.00,,,0.00,,2013-08-11 17:08:00,
2013-08-11 13:14:00,75.0,60.0,30.12,ESE,113,2.0,4.0,59,0.00,,,0.00,,2013-08-11 17:14:00,
2013-08-11 13:26:00,75.0,60.0,30.12,South,186,1.0,9.0,59,0.00,,,0.00,,2013-08-11 17:26:00,
2013-08-11 13:37:00,75.0,60.0,30.12,SSE,165,1.0,3.0,60,0.00,,,0.00,,2013-08-11 17:37:00,
2013-08-11 13:45:00,75.0,58.0,30.12,SW,232,4.0,7.0,56,0.00,,,0.00,,2013-08-11 17:45:00,
2013-08-11 13:55:00,75.0,57.0,30.12,West,273,8.0,12.0,54,0.00,,,0.00,,2013-08-11 17:55:00,
2013-08-11 14:06:00,74.0,58.0,30.11,West,271,3.0,8.0,57,0.00,,,0.00,,2013-08-11 18:06:00,
2013-08-11 14:18:00,74.0,58.0,30.11,WNW,296,3.0,8.0,57,0.00,,,0.00,,2013-08-11 18:18:00,
2013-08-11 14:40:00,74.0,59.0,30.11,SSW,193,1.0,7.0,60,0.00,,,0.00,,2013-08-11 18:40:00,
2013-08-11 14:47:00,74.0,59.0,30.11,West,269,3.0,5.0,59,0.00,,,0.00,,2013-08-11 18:47:00,
2013-08-11 15:10:00,74.0,58.0,30.10,WNW,293,3.0,9.0,57,0.00,,,0.00,,2013-08-11 19:10:00,
2013-08-11 15:16:00,76.0,60.0,30.10,WSW,256,3.0,8.0,57,0.00,,,0.00,,2013-08-11 19:16:00,
2013-08-11 15:26:00,76.0,58.0,30.09,West,264,4.0,9.0,54,0.00,,,0.00,,2013-08-11 19:26:00,
2013-08-11 15:34:00,76.0,59.0,30.09,SSW,200,2.0,10.0,56,0.00,,,0.00,,2013-08-11 19:34:00,
2013-08-11 15:50:00,76.0,60.0,30.09,ENE,64,2.0,6.0,58,0.00,,,0.00,,2013-08-11 19:50:00,
2013-08-11 16:08:00,75.0,59.0,30.08,SSW,197,0.0,3.0,58,0.00,,,0.00,,2013-08-11 20:08:00,
2013-08-11 16:20:00,76.0,60.0,30.08,East,84,2.0,5.0,58,0.00,,,0.00,,2013-08-11 20:20:00,
2013-08-11 16:28:00,77.0,60.0,30.08,West,262,5.0,7.0,56,0.00,,,0.00,,2013-08-11 20:28:00,
2013-08-11 16:38:00,76.0,62.0,30.08,WSW,248,2.0,4.0,61,0.00,,,0.00,,2013-08-11 20:38:00,
2013-08-11 16:48:00,76.0,61.0,30.08,SSW,205,0.0,2.0,60,0.00,,,0.00,,2013-08-11 20:48:00,
2013-08-11 16:56:00,76.0,62.0,30.07,West,274,0.0,3.0,62,0.00,,,0.00,,2013-08-11 20:56:00,
2013-08-11 17:08:00,76.0,62.0,30.07,West,266,0.0,3.0,62,0.00,,,0.00,,2013-08-11 21:08:00,
2013-08-11 17:14:00,75.0,62.0,30.07,West,266,0.0,3.0,64,0.00,,,0.00,,2013-08-11 21:14:00,
2013-08-11 17:27:00,77.0,65.0,30.07,SSW,201,0.0,2.0,67,0.00,,,0.00,,2013-08-11 21:27:00,
2013-08-11 17:35:00,77.0,64.0,30.06,West,266,1.0,5.0,64,0.00,,,0.00,,2013-08-11 21:35:00,
2013-08-11 17:47:00,76.0,65.0,30.07,SSW,201,1.0,4.0,68,0.00,,,0.00,,2013-08-11 21:47:00,
2013-08-11 17:55:00,76.0,63.0,30.07,SSW,201,0.0,0.0,65,0.00,,,0.00,,2013-08-11 21:55:00,
2013-08-11 18:05:00,77.0,64.0,30.07,SSW,195,1.0,2.0,65,0.00,,,0.00,,2013-08-11 22:05:00,
2013-08-11 18:17:00,78.0,64.0,30.07,WSW,252,1.0,4.0,63,0.00,,,0.00,,2013-08-11 22:17:00,
2013-08-11 18:25:00,78.0,64.0,30.06,WSW,250,1.0,4.0,63,0.00,,,0.00,,2013-08-11 22:25:00,
2013-08-11 18:36:00,78.0,64.0,30.06,SSW,204,1.0,2.0,62,0.00,,,0.00,,2013-08-11 22:36:00,
2013-08-11 18:47:00,79.0,65.0,30.06,South,187,0.0,3.0,62,0.00,,,0.00,,2013-08-11 22:47:00,
2013-08-11 18:56:00,80.0,64.0,30.06,SSW,195,0.0,1.0,58,0.00,,,0.00,,2013-08-11 22:56:00,
2013-08-11 19:29:00,80.0,64.0,30.06,WNW,285,0.0,2.0,59,0.00,,,0.00,,2013-08-11 23:29:00,
2013-08-11 19:35:00,80.0,65.0,30.06,WNW,285,0.0,1.0,60,0.00,,,0.00,,2013-08-11 23:35:00,
2013-08-11 19:48:00,80.0,65.0,30.06,WNW,285,0.0,1.0,60,0.00,,,0.00,,2013-08-11 23:48:00,
2013-08-11 19:56:00,79.0,65.0,30.06,WNW,285,0.0,0.0,62,0.00,,,0.00,,2013-08-11 23:56:00,
2013-08-11 20:07:00,76.0,63.0,30.06,WNW,285,0.0,0.0,64,0.00,,,0.00,,2013-08-12 00:07:00,
2013-08-11 20:18:00,75.0,63.0,30.06,WNW,285,0.0,0.0,67,0.00,,,0.00,,2013-08-12 00:18:00,
2013-08-11 20:37:00,69.0,62.0,30.06,WSW,241,0.0,1.0,78,0.00,,,0.00,,2013-08-12 00:37:00,
2013-08-11 20:49:00,68.0,63.0,30.06,ENE,69,0.0,0.0,83,0.00,,,0.00,,2013-08-12 00:49:00,
2013-08-11 20:55:00,67.0,62.0,30.06,ENE,69,0.0,0.0,84,0.00,,,0.00,,2013-08-12 00:55:00,
2013-08-11 21:08:00,67.0,62.0,30.06,ENE,69,1.0,2.0,83,0.00,,,0.00,,2013-08-12 01:08:00,
2013-08-11 21:14:00,67.0,62.0,30.07,East,86,0.0,0.0,84,0.00,,,0.00,,2013-08-12 01:14:00,
2013-08-11 21:26:00,65.0,60.0,30.08,East,86,0.0,0.0,85,0.00,,,0.00,,2013-08-12 01:26:00,
2013-08-11 21:47:00,65.0,60.0,30.08,East,87,0.0,0.0,83,0.00,,,0.00,,2013-08-12 01:47:00,
2013-08-11 21:55:00,64.0,58.0,30.08,East,87,0.0,0.0,82,0.00,,,0.00,,2013-08-12 01:55:00,
2013-08-11 22:08:00,64.0,58.0,30.09,East,88,0.0,0.0,82,0.00,,,0.00,,2013-08-12 02:08:00,
2013-08-11 22:16:00,63.0,58.0,30.09,East,87,0.0,0.0,84,0.00,,,0.00,,2013-08-12 02:16:00,
2013-08-11 22:25:00,63.0,58.0,30.09,East,88,0.0,0.0,85,0.00,,,0.00,,2013-08-12 02:25:00,
2013-08-11 22:37:00,63.0,58.0,30.09,East,87,0.0,0.0,85,0.00,,,0.00,,2013-08-12 02:37:00,
2013-08-11 22:47:00,63.0,58.0,30.09,East,87,0.0,0.0,84,0.00,,,0.00,,2013-08-12 02:47:00,
2013-08-11 22:56:00,63.0,58.0,30.09,East,87,0.0,0.0,85,0.00,,,0.00,,2013-08-12 02:56:00,
2013-08-11 23:08:00,62.0,57.0,30.09,East,87,0.0,0.0,85,0.00,,,0.00,,2013-08-12 03:08:00,
2013-08-11 23:16:00,62.0,57.0,30.09,East,88,0.0,0.0,85,0.00,,,0.00,,2013-08-12 03:16:00,
2013-08-11 23:25:00,61.0,57.0,30.09,East,87,0.0,0.0,86,0.00,,,0.00,,2013-08-12 03:25:00,
2013-08-11 23:39:00,61.0,58.0,30.09,East,97,0.0,0.0,89,0.00,,,0.00,,2013-08-12 03:39:00,
2013-08-11 23:46:00,61.0,58.0,30.09,East,98,0.0,0.0,89,0.00,,,0.00,,2013-08-12 03:46:00,